»·PEaware :: UAL877 KDEN-CYYC

UAL877 :: KDEN-CYYC

FLIGHT INFORMATION

Flight Status: Arrived
Operator:
United Airlines
More flights by this operator :: More flights under this callsign
Pilot: Jamyson D. (13674)
Aircraft: BOEING 737-800
(B738)
More flights by this aircraft type
Origin: KDEN Denver Intl
United States
Destination: CYYC Calgary Intl
Canada
More flights between these airports :: More routes between these airports
Route: RIKKK3 FISAR BIL AMENA MOBEK EBGAL4
File this flight plan on PilotEdge
Remarks: PBN / A1B1C1D1S1S2 DOF / 170810 REG / N806SB EET / KZLC0042 CZEG0132 OPR / UAL RMK / TCAS SIMBRIEF
Altitude:
(Current/Filed)
34,000ft
Speed:
(Current/Filed)
446kts
Departed: 10-Aug-17 02:48 AM
Arrived: 10-Aug-17 04:56 AM
Distance/Time
Traveled:
780nm/2:08
Distance/Time
To Go:
Arrived

Flight Plot

Page will automatically refresh every two minutes.

Flight plan parsing failed; only flown route is shown


Map Options




Map Legend


Flown Route
Filed Route
Departure Airport
Arrival Airport
Navaid (VOR, NDB)
Fix

Horizontal Profiles

Position Reports

Time Latitude Longitude Heading Altitude Ground
Speed
10-Aug-17 02:36 39.858121 -104.679563 16 5324ft 0kts
10-Aug-17 02:37 39.858121 -104.679563 16 5324ft 0kts
10-Aug-17 02:38 39.858121 -104.679563 16 5324ft 0kts
10-Aug-17 02:39 39.858121 -104.679563 16 5324ft 0kts
10-Aug-17 02:40 39.858112 -104.679566 16 5324ft 1kts
10-Aug-17 02:41 39.857532 -104.679707 4 5324ft 2kts
10-Aug-17 02:42 39.856943 -104.679726 0 5324ft 2kts
10-Aug-17 02:43 39.856604 -104.679732 0 5324ft 0kts
10-Aug-17 02:44 39.856604 -104.679732 0 5324ft 0kts
10-Aug-17 02:45 39.856700 -104.679799 307 5324ft 1kts
10-Aug-17 02:46 39.856704 -104.681044 270 5324ft 7kts
10-Aug-17 02:47 39.856715 -104.683841 220 5325ft 7kts
10-Aug-17 02:48 39.853943 -104.684032 180 5324ft 14kts
10-Aug-17 02:49 39.848704 -104.684086 180 5324ft 23kts
10-Aug-17 02:50 39.841712 -104.684155 181 5324ft 20kts
10-Aug-17 02:51 39.840725 -104.694411 270 5324ft 104kts
10-Aug-17 02:52 39.841761 -104.755438 274 6482ft 193kts
10-Aug-17 02:53 39.871366 -104.823903 301 7904ft 261kts
10-Aug-17 02:54 39.920508 -104.906711 321 10503ft 307kts
10-Aug-17 02:55 40.003902 -104.944642 357 13216ft 346kts
10-Aug-17 02:56 40.097916 -104.921433 30 16023ft 373kts
10-Aug-17 02:57 40.182518 -104.843070 28 18590ft 392kts
10-Aug-17 02:58 40.286978 -104.808508 5 21092ft 399kts
10-Aug-17 02:59 40.396097 -104.809984 349 23453ft 401kts
10-Aug-17 03:00 40.507396 -104.821168 348 25652ft 410kts
10-Aug-17 03:01 40.621524 -104.833083 348 27670ft 418kts
10-Aug-17 03:02 40.737228 -104.845246 347 29503ft 426kts
10-Aug-17 03:03 40.848867 -104.882467 332 31171ft 417kts
10-Aug-17 03:04 40.957249 -104.934915 331 32748ft 422kts
10-Aug-17 03:05 41.066766 -104.988788 332 34114ft 429kts
10-Aug-17 03:06 41.172763 -105.041142 332 34364ft 432kts
10-Aug-17 03:07 41.284502 -105.096479 332 34621ft 438kts
10-Aug-17 03:08 41.396046 -105.151900 332 36258ft 427kts
10-Aug-17 03:09 41.507218 -105.207427 332 36345ft 429kts
10-Aug-17 03:10 41.613742 -105.272308 324 36342ft 422kts
10-Aug-17 03:11 41.715581 -105.347497 324 36313ft 422kts
10-Aug-17 03:12 41.817233 -105.422858 324 36302ft 421kts
10-Aug-17 03:13 41.919122 -105.498678 324 36318ft 422kts
10-Aug-17 03:14 42.020891 -105.574688 324 36304ft 422kts
10-Aug-17 03:15 42.121151 -105.649844 324 36285ft 422kts
10-Aug-17 03:16 42.221820 -105.725582 323 36315ft 421kts
10-Aug-17 03:17 42.322905 -105.801918 323 36313ft 421kts
10-Aug-17 03:18 42.424668 -105.879054 323 36312ft 421kts
10-Aug-17 03:19 42.525756 -105.955963 323 36311ft 421kts
10-Aug-17 03:20 42.627253 -106.033472 323 36310ft 421kts
10-Aug-17 03:21 42.728164 -106.110830 323 36309ft 421kts
10-Aug-17 03:22 42.829274 -106.188630 323 36308ft 421kts
10-Aug-17 03:23 42.930353 -106.266706 323 36308ft 420kts
10-Aug-17 03:24 43.030648 -106.344471 324 36308ft 415kts
10-Aug-17 03:25 43.124830 -106.417757 323 36308ft 415kts
10-Aug-17 03:26 43.224389 -106.495510 323 36303ft 415kts
10-Aug-17 03:27 43.323404 -106.573145 323 36302ft 415kts
10-Aug-17 03:28 43.422451 -106.651109 323 36302ft 415kts
10-Aug-17 03:29 43.521050 -106.729009 323 36313ft 415kts
10-Aug-17 03:30 43.620414 -106.807806 323 36311ft 415kts
10-Aug-17 03:31 43.719912 -106.887010 323 36312ft 418kts
10-Aug-17 03:32 43.820123 -106.967090 322 36311ft 421kts
10-Aug-17 03:33 43.921310 -107.048306 322 36314ft 425kts
10-Aug-17 03:34 44.022668 -107.129954 322 36291ft 424kts
10-Aug-17 03:35 44.121817 -107.210134 322 36294ft 425kts
10-Aug-17 03:36 44.222715 -107.292062 322 36297ft 424kts
10-Aug-17 03:37 44.323715 -107.374394 322 36268ft 424kts
10-Aug-17 03:38 44.424530 -107.456918 322 36248ft 424kts
10-Aug-17 03:39 44.525708 -107.540038 322 36240ft 424kts
10-Aug-17 03:40 44.626387 -107.623110 322 36254ft 424kts
10-Aug-17 03:41 44.725138 -107.704936 322 36253ft 423kts
10-Aug-17 03:42 44.825720 -107.788600 322 36241ft 423kts
10-Aug-17 03:43 44.926067 -107.872403 322 36241ft 425kts
10-Aug-17 03:44 45.009836 -107.942759 323 36238ft 421kts
10-Aug-17 03:45 45.125160 -108.039938 325 36244ft 423kts
10-Aug-17 03:46 45.225619 -108.124694 325 36257ft 423kts
10-Aug-17 03:47 45.326164 -108.210049 325 36255ft 423kts
10-Aug-17 03:48 45.426229 -108.295374 325 36256ft 423kts
10-Aug-17 03:49 45.521907 -108.377290 325 36253ft 423kts
10-Aug-17 03:51 45.621792 -108.463164 325 36254ft 423kts
10-Aug-17 03:52 45.721776 -108.549481 325 36253ft 423kts
10-Aug-17 03:53 45.822008 -108.635421 327 36251ft 424kts
10-Aug-17 03:53 45.903164 -108.700853 326 36257ft 424kts
10-Aug-17 03:54 46.005111 -108.783280 327 36256ft 423kts
10-Aug-17 03:55 46.105518 -108.864792 327 36251ft 424kts
10-Aug-17 03:56 46.206618 -108.947225 327 36206ft 424kts
10-Aug-17 03:57 46.307976 -109.030267 327 36183ft 421kts
10-Aug-17 03:58 46.409099 -109.113426 328 36183ft 421kts
10-Aug-17 03:59 46.509796 -109.196596 328 36233ft 420kts
10-Aug-17 04:00 46.610591 -109.280143 328 36272ft 420kts
10-Aug-17 04:01 46.711398 -109.364112 328 36271ft 420kts
10-Aug-17 04:02 46.812123 -109.448384 328 36271ft 420kts
10-Aug-17 04:03 46.912933 -109.533126 329 36270ft 420kts
10-Aug-17 04:04 47.013335 -109.617910 329 36269ft 421kts
10-Aug-17 04:05 47.111549 -109.701108 329 36274ft 421kts
10-Aug-17 04:06 47.212048 -109.786653 329 36277ft 421kts
10-Aug-17 04:07 47.312116 -109.872223 329 36276ft 421kts
10-Aug-17 04:08 47.412509 -109.958454 329 36275ft 421kts
10-Aug-17 04:09 47.512884 -110.045056 329 36274ft 421kts
10-Aug-17 04:10 47.613399 -110.132168 329 36273ft 421kts
10-Aug-17 04:11 47.713697 -110.219484 329 36258ft 421kts
10-Aug-17 04:12 47.813916 -110.307126 329 36228ft 421kts
10-Aug-17 04:13 47.914095 -110.395053 328 36221ft 415kts
10-Aug-17 04:14 48.012487 -110.481952 328 36217ft 416kts
10-Aug-17 04:15 48.110264 -110.568627 328 36222ft 415kts
10-Aug-17 04:16 48.207391 -110.655098 328 36227ft 415kts
10-Aug-17 04:17 48.305697 -110.743022 328 36226ft 415kts
10-Aug-17 04:18 48.404183 -110.831503 328 36227ft 415kts
10-Aug-17 04:19 48.502397 -110.920132 328 36228ft 415kts
10-Aug-17 04:20 48.601165 -111.009673 328 36225ft 416kts
10-Aug-17 04:21 48.699515 -111.099258 327 36232ft 417kts
10-Aug-17 04:22 48.798352 -111.189720 327 36251ft 417kts
10-Aug-17 04:23 48.897144 -111.280550 327 36241ft 417kts
10-Aug-17 04:24 48.995517 -111.371426 327 36243ft 417kts
10-Aug-17 04:25 49.094121 -111.462943 328 36225ft 419kts
10-Aug-17 04:26 49.191551 -111.553760 328 36242ft 419kts
10-Aug-17 04:27 49.290209 -111.646173 328 36254ft 419kts
10-Aug-17 04:28 49.387345 -111.737593 327 36225ft 419kts
10-Aug-17 04:29 49.486278 -111.831154 327 36202ft 419kts
10-Aug-17 04:30 49.582628 -111.929790 323 36201ft 419kts
10-Aug-17 04:31 49.675824 -112.034304 323 36128ft 413kts
10-Aug-17 04:32 49.768136 -112.138642 323 34249ft 413kts
10-Aug-17 04:33 49.860672 -112.243774 323 32244ft 417kts
10-Aug-17 04:34 49.951839 -112.347837 323 30342ft 401kts
10-Aug-17 04:35 50.039224 -112.448060 323 28515ft 381kts
10-Aug-17 04:36 50.118925 -112.539881 323 26856ft 351kts
10-Aug-17 04:37 50.195146 -112.628059 323 25276ft 344kts
10-Aug-17 04:38 50.270046 -112.715052 323 23709ft 335kts
10-Aug-17 04:39 50.341001 -112.805804 315 22175ft 331kts
10-Aug-17 04:40 50.404861 -112.905660 315 20456ft 325kts
10-Aug-17 04:41 50.466797 -113.003703 315 18971ft 315kts
10-Aug-17 04:42 50.527346 -113.100054 314 17526ft 309kts
10-Aug-17 04:43 50.586980 -113.195335 314 16108ft 305kts
10-Aug-17 04:44 50.645571 -113.289309 314 14711ft 300kts
10-Aug-17 04:45 50.703963 -113.381128 319 13426ft 293kts
10-Aug-17 04:46 50.764796 -113.464089 319 13095ft 281kts
10-Aug-17 04:47 50.822155 -113.542352 319 11775ft 267kts
10-Aug-17 04:48 50.876624 -113.616894 319 10568ft 254kts
10-Aug-17 04:49 50.921841 -113.693653 280 9570ft 246kts
10-Aug-17 04:50 50.924224 -113.804772 247 8142ft 255kts
10-Aug-17 04:51 50.861149 -113.842600 185 6654ft 259kts
10-Aug-17 04:52 50.829247 -113.912957 276 6493ft 222kts
10-Aug-17 04:53 50.869197 -113.963111 333 6509ft 184kts
10-Aug-17 04:54 50.916822 -113.989709 358 6509ft 185kts
10-Aug-17 04:55 50.968066 -113.990662 359 6330ft 188kts
10-Aug-17 04:56 51.015284 -113.990580 359 5425ft 158kts
10-Aug-17 04:57 51.059547 -113.990610 359 4553ft 161kts
10-Aug-17 04:58 51.101800 -113.990426 359 3792ft 156kts
10-Aug-17 04:59 51.126479 -113.993446 334 3565ft 28kts
10-Aug-17 05:00 51.127011 -113.996663 269 3565ft 7kts
10-Aug-17 05:01 51.128144 -113.998804 355 3565ft 6kts
10-Aug-17 05:02 51.129270 -113.997850 27 3565ft 0kts
10-Aug-17 05:03 51.109065 -113.990374 359 3644ft 156kts
10-Aug-17 05:04 51.129270 -113.997850 27 3565ft 0kts
10-Aug-17 05:05 51.129270 -113.997850 27 3565ft 0kts
10-Aug-17 05:06 51.129270 -113.997850 27 3565ft 0kts
10-Aug-17 05:07 51.129270 -113.997850 27 3565ft 0kts
10-Aug-17 05:08 51.129270 -113.997850 27 3565ft 0kts
10-Aug-17 05:09 51.129270 -113.997850 27 3565ft 0kts
10-Aug-17 05:10 51.129270 -113.997850 27 3565ft 0kts
10-Aug-17 05:11 51.129270 -113.997850 27 3565ft 0kts
10-Aug-17 05:12 51.129270 -113.997850 27 3565ft 0kts
10-Aug-17 05:13 51.129270 -113.997850 27 3565ft 0kts

Navigation Log

Ident Type
Flight plan parsing failed, navigation log unavailable